createdAt,value
2023-03-06T00:01:52.349Z,3.75
2023-03-06T00:04:19.839Z,4.35
2023-03-06T00:06:47.244Z,4.35
2023-03-06T00:09:14.673Z,4.03
2023-03-06T00:11:42.094Z,4.68
2023-03-06T00:14:09.550Z,4.57
2023-03-06T00:16:37.039Z,4.03
2023-03-06T00:19:04.526Z,4.03
2023-03-06T00:21:32.024Z,3.80
2023-03-06T00:23:59.382Z,4.15
2023-03-06T00:26:26.867Z,4.45
2023-03-06T00:28:54.472Z,4.70
2023-03-06T00:31:21.923Z,4.30
2023-03-06T00:33:49.605Z,4.47
2023-03-06T00:36:17.041Z,4.43
2023-03-06T00:38:44.765Z,4.10
2023-03-06T00:41:12.425Z,4.50
2023-03-06T00:43:40.292Z,4.53
2023-03-06T00:46:07.744Z,4.17
2023-03-06T00:48:35.290Z,3.70
2023-03-06T00:51:02.932Z,4.38
2023-03-06T00:53:30.422Z,6.13
2023-03-06T00:55:57.878Z,5.00
2023-03-06T00:58:25.291Z,4.40
2023-03-06T01:00:52.776Z,4.20
2023-03-06T01:03:20.328Z,4.13
2023-03-06T01:05:47.852Z,4.35
2023-03-06T01:08:15.358Z,4.93
2023-03-06T01:10:42.801Z,5.47
2023-03-06T01:13:10.313Z,4.40
2023-03-06T01:15:37.704Z,4.03
2023-03-06T01:18:05.499Z,4.80
2023-03-06T01:20:32.923Z,4.90
2023-03-06T01:23:00.480Z,4.63
2023-03-06T01:25:28.286Z,4.55
2023-03-06T01:27:55.747Z,4.82
2023-03-06T01:30:23.273Z,4.53
2023-03-06T01:32:50.739Z,5.60
2023-03-06T01:35:18.250Z,4.97
2023-03-06T01:37:45.834Z,4.57
2023-03-06T01:40:13.647Z,5.75
2023-03-06T01:42:42.222Z,5.72
2023-03-06T01:45:15.785Z,8.73
2023-03-06T01:47:44.871Z,7.30
2023-03-06T01:50:12.302Z,5.45
2023-03-06T01:52:58.988Z,6.00
2023-03-06T01:55:31.561Z,4.82
2023-03-06T01:58:00.089Z,5.20
2023-03-06T02:00:28.192Z,5.77
2023-03-06T02:03:06.421Z,5.90
2023-03-06T02:05:33.976Z,5.60
2023-03-06T02:08:01.361Z,5.53
2023-03-06T02:10:28.833Z,5.53
2023-03-06T02:12:56.325Z,5.10
2023-03-06T02:15:24.825Z,5.07
2023-03-06T02:17:52.700Z,4.82
2023-03-06T02:20:35.242Z,4.95
2023-03-06T02:23:13.306Z,3.95
2023-03-06T02:25:41.961Z,4.17
2023-03-06T02:28:10.287Z,3.97
2023-03-06T02:30:37.787Z,3.60
2023-03-06T02:33:05.589Z,3.92
2023-03-06T02:35:34.112Z,3.50
2023-03-06T02:38:03.788Z,4.20
2023-03-06T02:40:31.354Z,3.30
2023-03-06T02:42:58.925Z,3.42
2023-03-06T02:45:36.894Z,3.13
2023-03-06T02:48:04.648Z,3.88
2023-03-06T02:50:32.174Z,3.40
2023-03-06T02:52:59.708Z,3.13
2023-03-06T02:55:27.192Z,3.45
2023-03-06T02:57:54.604Z,3.92
2023-03-06T03:00:22.268Z,3.47
2023-03-06T03:02:49.716Z,3.43
2023-03-06T03:05:17.194Z,3.00
2023-03-06T03:07:44.722Z,3.67
2023-03-06T03:10:12.679Z,3.47
2023-03-06T03:12:40.160Z,3.78
2023-03-06T03:15:07.867Z,3.77
2023-03-06T03:17:41.004Z,3.60
2023-03-06T03:20:09.447Z,4.50
2023-03-06T03:22:36.917Z,3.80
2023-03-06T03:25:04.382Z,3.58
2023-03-06T03:27:31.850Z,3.77
2023-03-06T03:29:59.431Z,3.65
2023-03-06T03:32:26.997Z,3.90
2023-03-06T03:34:55.959Z,3.85
2023-03-06T03:37:23.452Z,3.60
2023-03-06T03:39:50.855Z,3.13
2023-03-06T03:42:18.332Z,4.10
2023-03-06T03:44:45.910Z,3.70
2023-03-06T03:47:16.796Z,3.53
2023-03-06T03:49:44.402Z,3.75
2023-03-06T03:52:11.841Z,4.30
2023-03-06T03:54:39.225Z,4.40
2023-03-06T03:57:06.618Z,4.22
2023-03-06T03:59:34.518Z,4.03
2023-03-06T04:02:04.806Z,4.70
2023-03-06T04:04:32.368Z,4.53
2023-03-06T04:07:00.684Z,4.18
2023-03-06T04:09:28.122Z,4.65
2023-03-06T04:11:55.710Z,3.90
2023-03-06T04:14:23.549Z,4.25
2023-03-06T04:16:51.041Z,3.73
2023-03-06T04:19:18.490Z,3.78
2023-03-06T04:21:46.015Z,4.47
2023-03-06T04:24:13.756Z,4.18
2023-03-06T04:26:41.238Z,4.35
2023-03-06T04:29:08.811Z,4.20
2023-03-06T04:31:36.437Z,3.75
2023-03-06T04:34:03.857Z,4.47
2023-03-06T04:36:32.138Z,4.38
2023-03-06T04:38:59.962Z,4.10
2023-03-06T04:41:27.954Z,4.37
2023-03-06T04:43:55.586Z,4.15
2023-03-06T04:46:23.024Z,4.43
2023-03-06T04:48:50.580Z,4.40
2023-03-06T04:51:18.105Z,4.57
2023-03-06T04:53:45.513Z,4.40
2023-03-06T04:56:12.956Z,4.88
2023-03-06T04:58:40.463Z,4.95
2023-03-06T05:01:08.342Z,4.75
2023-03-06T05:03:35.846Z,4.60
2023-03-06T05:06:03.308Z,4.27
2023-03-06T05:08:30.733Z,4.63
2023-03-06T05:10:59.382Z,5.07
2023-03-06T05:13:27.606Z,3.83
2023-03-06T05:15:54.996Z,4.28
2023-03-06T05:18:22.548Z,4.10
2023-03-06T05:20:50.222Z,4.47
2023-03-06T05:23:17.636Z,4.35
2023-03-06T05:25:45.081Z,4.78
2023-03-06T05:28:12.697Z,4.32
2023-03-06T05:30:40.540Z,4.57
2023-03-06T05:33:08.260Z,4.43
2023-03-06T05:35:35.725Z,4.30
2023-03-06T05:38:03.282Z,4.15
2023-03-06T05:40:30.810Z,4.90
2023-03-06T05:42:58.273Z,4.70
2023-03-06T05:45:25.779Z,5.13
2023-03-06T05:47:53.185Z,5.18
2023-03-06T05:50:20.720Z,4.93
2023-03-06T05:52:48.126Z,4.30
2023-03-06T05:55:16.556Z,4.80
2023-03-06T05:57:44.010Z,5.13
2023-03-06T06:00:12.002Z,4.70
2023-03-06T06:02:39.511Z,4.70
2023-03-06T06:05:07.229Z,4.85
2023-03-06T06:07:34.714Z,4.47
2023-03-06T06:10:03.730Z,4.43
2023-03-06T06:12:31.462Z,4.35
2023-03-06T06:14:58.890Z,4.32
2023-03-06T06:17:26.337Z,4.68
2023-03-06T06:19:53.839Z,4.43
2023-03-06T06:22:21.339Z,4.28
2023-03-06T06:24:48.781Z,4.68
2023-03-06T06:27:16.296Z,4.40
2023-03-06T06:29:44.573Z,3.97
2023-03-06T06:32:12.261Z,4.43
2023-03-06T06:34:39.751Z,11.77
2023-03-06T06:37:07.288Z,6.57
2023-03-06T06:39:34.787Z,4.63
2023-03-06T06:42:26.190Z,4.47
2023-03-06T06:44:49.689Z,4.20
2023-03-06T06:47:22.985Z,4.10
2023-03-06T06:49:52.801Z,4.60
2023-03-06T06:52:20.469Z,4.40
2023-03-06T06:54:47.987Z,4.47
2023-03-06T06:57:15.553Z,5.17
2023-03-06T06:59:43.007Z,7.50
2023-03-06T07:02:13.905Z,5.60
2023-03-06T07:04:56.197Z,4.70
2023-03-06T07:07:28.890Z,7.32
2023-03-06T07:09:56.745Z,6.40
2023-03-06T07:12:24.258Z,7.40
2023-03-06T07:14:51.702Z,8.55
2023-03-06T07:17:19.160Z,5.75
2023-03-06T07:19:46.616Z,5.65
2023-03-06T07:22:14.393Z,6.77
2023-03-06T07:24:41.844Z,5.72
2023-03-06T07:27:09.293Z,5.63
2023-03-06T07:29:37.450Z,5.95
2023-03-06T07:32:05.310Z,5.50
2023-03-06T07:34:32.806Z,5.67
2023-03-06T07:37:00.211Z,5.60
2023-03-06T07:39:28.249Z,5.00
2023-03-06T07:41:55.734Z,4.93
2023-03-06T07:44:23.374Z,4.82
2023-03-06T07:46:50.874Z,6.50
2023-03-06T07:49:18.302Z,5.85
2023-03-06T07:51:45.761Z,5.63
2023-03-06T07:54:13.237Z,5.80
2023-03-06T07:56:40.702Z,4.82
2023-03-06T07:59:08.214Z,5.40
2023-03-06T08:01:36.513Z,5.57
2023-03-06T08:04:04.405Z,5.25
2023-03-06T08:06:31.894Z,5.28
2023-03-06T08:08:59.323Z,4.35
2023-03-06T08:11:27.311Z,4.43
2023-03-06T08:13:55.116Z,4.18
2023-03-06T08:16:23.001Z,5.18
2023-03-06T08:18:50.458Z,6.78
2023-03-06T08:21:25.177Z,6.82
2023-03-06T08:23:52.621Z,6.00
2023-03-06T08:26:20.943Z,4.78
2023-03-06T08:28:48.338Z,5.55
2023-03-06T08:31:28.780Z,5.95
2023-03-06T08:33:56.522Z,5.00
2023-03-06T08:36:24.141Z,5.50
2023-03-06T08:38:51.680Z,5.47
2023-03-06T08:41:20.401Z,6.28
2023-03-06T08:43:48.115Z,5.70
2023-03-06T08:46:15.579Z,4.97
2023-03-06T08:48:43.083Z,6.50
2023-03-06T08:51:10.644Z,5.65
2023-03-06T08:53:43.424Z,6.20
2023-03-06T08:56:27.517Z,6.78
2023-03-06T08:58:55.171Z,5.07
2023-03-06T09:01:25.809Z,7.10
2023-03-06T09:03:56.461Z,5.55
2023-03-06T09:06:24.098Z,5.75
2023-03-06T09:08:54.764Z,6.22
2023-03-06T09:11:22.728Z,5.25
2023-03-06T09:13:50.359Z,6.17
2023-03-06T09:16:17.986Z,6.15
2023-03-06T09:18:45.504Z,5.35
2023-03-06T09:21:13.487Z,6.97
2023-03-06T09:23:41.022Z,5.72
2023-03-06T09:26:08.703Z,6.53
2023-03-06T09:28:36.745Z,6.72
2023-03-06T09:31:08.010Z,6.70
2023-03-06T09:33:35.529Z,6.47
2023-03-06T09:36:02.971Z,4.85
2023-03-06T09:38:30.662Z,5.80
2023-03-06T09:40:58.368Z,6.18
2023-03-06T09:43:38.170Z,5.00
2023-03-06T09:46:14.463Z,6.57
2023-03-06T09:48:48.501Z,6.07
2023-03-06T09:51:16.446Z,7.50
2023-03-06T09:54:19.589Z,6.30
2023-03-06T09:56:48.266Z,7.15
2023-03-06T09:59:21.100Z,7.45
2023-03-06T10:01:59.066Z,4.43
2023-03-06T10:04:29.757Z,6.77
2023-03-06T10:06:57.650Z,6.78
2023-03-06T10:09:51.454Z,6.20
2023-03-06T10:12:18.956Z,7.00
2023-03-06T10:14:49.242Z,6.80
2023-03-06T10:17:18.907Z,6.40
2023-03-06T10:19:49.895Z,6.22
2023-03-06T10:22:23.303Z,6.03
2023-03-06T10:25:09.503Z,7.85
2023-03-06T10:27:40.659Z,7.53
2023-03-06T10:30:11.329Z,6.97
2023-03-06T10:32:58.673Z,7.55
2023-03-06T10:35:37.449Z,7.55
2023-03-06T10:38:16.828Z,7.22
2023-03-06T10:40:47.410Z,6.95
2023-03-06T10:43:15.138Z,6.47
2023-03-06T10:45:49.826Z,6.90
2023-03-06T10:48:24.557Z,7.65
2023-03-06T10:50:52.979Z,8.40
2023-03-06T10:53:21.904Z,8.20
2023-03-06T10:55:53.215Z,8.50
2023-03-06T10:58:24.825Z,7.50
2023-03-06T11:01:00.746Z,6.38
2023-03-06T11:03:28.543Z,7.93
2023-03-06T11:05:56.058Z,9.45
2023-03-06T11:08:23.807Z,7.60
2023-03-06T11:11:00.511Z,7.00
2023-03-06T11:13:28.990Z,8.32
2023-03-06T11:15:57.258Z,7.43
2023-03-06T11:18:28.514Z,7.65
2023-03-06T11:20:59.530Z,7.67
2023-03-06T11:23:30.180Z,8.35
2023-03-06T11:25:58.348Z,9.65
2023-03-06T11:28:40.824Z,7.07
2023-03-06T11:31:10.473Z,10.40
2023-03-06T11:33:37.906Z,8.97
2023-03-06T11:36:09.655Z,8.90
2023-03-06T11:38:45.530Z,7.93
2023-03-06T11:41:28.439Z,8.77
2023-03-06T11:43:57.985Z,7.90
2023-03-06T11:46:26.298Z,7.50
2023-03-06T11:48:54.686Z,11.32
2023-03-06T11:51:25.774Z,9.85
2023-03-06T11:53:53.478Z,8.10
2023-03-06T11:56:23.561Z,8.85
2023-03-06T11:59:07.713Z,9.50
2023-03-06T12:01:59.276Z,7.63
2023-03-06T12:04:32.974Z,8.23
2023-03-06T12:07:00.498Z,10.20
2023-03-06T12:09:33.754Z,9.30
2023-03-06T12:12:08.318Z,9.47
2023-03-06T12:14:51.110Z,10.43
2023-03-06T12:17:37.497Z,10.68
2023-03-06T12:20:27.803Z,6.65
2023-03-06T12:23:02.512Z,7.72
2023-03-06T12:25:49.292Z,8.77
2023-03-06T12:28:29.742Z,8.45
2023-03-06T12:31:09.585Z,8.35
2023-03-06T12:33:55.851Z,7.53
2023-03-06T12:36:23.327Z,8.18
2023-03-06T12:38:53.994Z,8.53
2023-03-06T12:41:21.421Z,8.55
2023-03-06T12:44:07.934Z,7.80
2023-03-06T12:46:45.662Z,10.77
2023-03-06T12:49:23.099Z,7.78
2023-03-06T12:51:57.753Z,10.27
2023-03-06T12:54:25.950Z,10.70
2023-03-06T12:56:53.652Z,8.63
2023-03-06T12:59:39.836Z,7.63
2023-03-06T13:02:22.362Z,8.52
2023-03-06T13:05:08.723Z,9.23
2023-03-06T13:07:55.727Z,8.35
2023-03-06T13:10:23.417Z,8.75
2023-03-06T13:12:50.874Z,8.10
2023-03-06T13:15:21.225Z,8.45
2023-03-06T13:17:48.758Z,9.00
2023-03-06T13:20:16.424Z,11.43
2023-03-06T13:22:44.361Z,8.38
2023-03-06T13:25:18.063Z,7.57
2023-03-06T13:28:00.957Z,7.05
2023-03-06T13:30:37.628Z,8.43
2023-03-06T13:33:25.903Z,8.25
2023-03-06T13:35:54.327Z,7.38
2023-03-06T13:38:30.142Z,7.38
2023-03-06T13:41:16.115Z,7.85
2023-03-06T13:43:45.331Z,9.20
2023-03-06T13:46:45.288Z,7.55
2023-03-06T13:49:15.869Z,7.95
2023-03-06T13:51:53.052Z,7.22
2023-03-06T13:54:30.342Z,7.35
2023-03-06T13:57:16.546Z,17.37
2023-03-06T13:59:44.030Z,8.77
2023-03-06T14:02:34.696Z,8.02
2023-03-06T14:05:02.259Z,15.35
2023-03-06T14:07:41.503Z,6.85
2023-03-06T14:10:10.735Z,7.23
2023-03-06T14:12:39.263Z,7.55
2023-03-06T14:15:12.936Z,11.20
2023-03-06T14:17:53.706Z,7.30
2023-03-06T14:20:21.277Z,7.55
2023-03-06T14:22:48.786Z,6.53
2023-03-06T14:25:29.427Z,6.82
2023-03-06T14:28:05.652Z,7.45
2023-03-06T14:30:40.057Z,7.10
2023-03-06T14:33:11.102Z,7.78
2023-03-06T14:35:38.568Z,7.63
2023-03-06T14:38:09.278Z,8.05
2023-03-06T14:40:45.620Z,8.65
2023-03-06T14:43:29.091Z,8.43
2023-03-06T14:45:57.663Z,7.57
2023-03-06T14:48:25.963Z,7.87
2023-03-06T14:50:54.232Z,8.18
2023-03-06T14:53:26.124Z,7.85
2023-03-06T14:55:58.966Z,7.90
2023-03-06T14:58:39.696Z,8.20
2023-03-06T15:01:07.844Z,8.90
2023-03-06T15:03:39.552Z,7.82
2023-03-06T15:06:07.026Z,8.05
2023-03-06T15:08:35.025Z,8.15
2023-03-06T15:11:03.591Z,7.82
2023-03-06T15:13:31.481Z,7.97
2023-03-06T15:16:00.086Z,7.82
2023-03-06T15:18:50.721Z,8.23
2023-03-06T15:21:19.046Z,13.18
2023-03-06T15:23:47.419Z,9.35
2023-03-06T15:26:36.657Z,7.87
2023-03-06T15:29:10.812Z,7.43
2023-03-06T15:31:39.068Z,7.70
2023-03-06T15:34:09.688Z,8.43
2023-03-06T15:36:43.253Z,7.57
2023-03-06T15:39:29.009Z,9.07
2023-03-06T15:41:57.968Z,7.90
2023-03-06T15:44:25.387Z,7.13
2023-03-06T15:47:07.736Z,7.47
2023-03-06T15:49:36.873Z,7.82
2023-03-06T15:52:04.367Z,6.33
2023-03-06T15:54:34.818Z,7.85
2023-03-06T15:57:04.229Z,7.72
2023-03-06T15:59:33.097Z,7.35
2023-03-06T16:02:04.401Z,8.25
2023-03-06T16:04:32.206Z,7.30
2023-03-06T16:06:59.711Z,7.32
2023-03-06T16:09:27.223Z,6.88
2023-03-06T16:11:54.778Z,7.65
2023-03-06T16:14:24.044Z,7.20
2023-03-06T16:16:52.121Z,7.33
2023-03-06T16:19:28.096Z,7.97
2023-03-06T16:21:55.977Z,8.65
2023-03-06T16:24:24.832Z,8.30
2023-03-06T16:26:52.695Z,8.15
2023-03-06T16:29:21.135Z,7.97
2023-03-06T16:31:48.655Z,7.15
2023-03-06T16:34:16.450Z,7.38
2023-03-06T16:36:44.078Z,6.75
2023-03-06T16:39:14.307Z,6.85
2023-03-06T16:41:42.129Z,6.47
2023-03-06T16:44:10.264Z,6.35
2023-03-06T16:46:38.352Z,6.40
2023-03-06T16:49:05.821Z,7.35
2023-03-06T16:51:33.790Z,6.30
2023-03-06T16:54:01.507Z,6.80
2023-03-06T16:56:29.005Z,6.57
2023-03-06T16:58:56.453Z,6.78
2023-03-06T17:01:24.296Z,6.80
2023-03-06T17:03:51.885Z,6.18
2023-03-06T17:06:20.464Z,6.37
2023-03-06T17:08:48.465Z,5.80
2023-03-06T17:11:16.525Z,7.30
2023-03-06T17:13:44.051Z,6.40
2023-03-06T17:16:16.364Z,7.00
2023-03-06T17:18:44.590Z,6.30
2023-03-06T17:21:12.264Z,6.00
2023-03-06T17:23:39.925Z,6.45
2023-03-06T17:26:08.583Z,8.85
2023-03-06T17:28:36.922Z,7.55
2023-03-06T17:31:05.333Z,6.93
2023-03-06T17:33:33.468Z,9.18
2023-03-06T17:36:01.318Z,8.73
2023-03-06T17:38:28.893Z,8.23
2023-03-06T17:40:56.753Z,7.70
2023-03-06T17:43:24.427Z,7.40
2023-03-06T17:45:52.263Z,8.18
2023-03-06T17:48:20.192Z,8.32
2023-03-06T17:50:54.826Z,22.13
2023-03-06T17:53:23.162Z,7.90
2023-03-06T17:55:51.186Z,8.63
2023-03-06T17:58:19.033Z,7.45
2023-03-06T18:00:46.479Z,8.63
2023-03-06T18:03:14.258Z,9.93
2023-03-06T18:05:41.692Z,9.35
2023-03-06T18:08:10.320Z,21.13
2023-03-06T18:10:41.374Z,18.13
2023-03-06T18:13:09.370Z,16.85
2023-03-06T18:15:40.762Z,13.32
2023-03-06T18:18:08.715Z,15.45
2023-03-06T18:20:41.354Z,14.50
2023-03-06T18:23:09.397Z,14.65
2023-03-06T18:25:37.181Z,15.50
2023-03-06T18:28:06.012Z,12.27
2023-03-06T18:30:37.200Z,13.30
2023-03-06T18:33:06.469Z,11.07
2023-03-06T18:35:34.427Z,12.27
2023-03-06T18:38:01.899Z,13.10
2023-03-06T18:40:29.767Z,11.68
2023-03-06T18:42:57.512Z,9.80
2023-03-06T18:45:25.255Z,9.77
2023-03-06T18:47:52.977Z,9.30
2023-03-06T18:50:20.702Z,9.15
2023-03-06T18:52:48.424Z,9.13
2023-03-06T18:55:16.257Z,10.07
2023-03-06T18:57:44.125Z,8.80
2023-03-06T19:00:12.576Z,14.30
2023-03-06T19:02:40.357Z,14.10
2023-03-06T19:05:08.164Z,8.82
2023-03-06T19:07:36.081Z,8.88
2023-03-06T19:10:04.005Z,8.23
2023-03-06T19:12:33.862Z,8.35
2023-03-06T19:15:03.070Z,7.72
2023-03-06T19:17:31.687Z,8.95
2023-03-06T19:19:59.441Z,7.60
2023-03-06T19:22:27.216Z,8.10
2023-03-06T19:24:54.940Z,7.90
2023-03-06T19:27:22.497Z,9.30
2023-03-06T19:29:50.748Z,8.15
2023-03-06T19:32:18.700Z,8.40
2023-03-06T19:34:48.835Z,8.20
2023-03-06T19:37:17.618Z,7.80
2023-03-06T19:39:45.508Z,7.57
2023-03-06T19:42:14.006Z,8.05
2023-03-06T19:44:41.961Z,9.82
2023-03-06T19:47:09.661Z,8.77
2023-03-06T19:49:38.731Z,14.13
2023-03-06T19:52:07.512Z,11.88
2023-03-06T19:54:35.486Z,11.43
2023-03-06T19:57:03.482Z,11.73
2023-03-06T19:59:31.319Z,10.10
2023-03-06T20:01:58.892Z,8.63
2023-03-06T20:04:26.807Z,7.75
2023-03-06T20:06:56.284Z,7.75
2023-03-06T20:09:24.262Z,8.30
2023-03-06T20:11:52.165Z,8.30
2023-03-06T20:14:19.965Z,8.63
2023-03-06T20:16:47.708Z,8.38
2023-03-06T20:19:15.475Z,7.35
2023-03-06T20:21:44.429Z,8.10
2023-03-06T20:24:16.630Z,8.40
2023-03-06T20:26:44.938Z,10.00
2023-03-06T20:29:13.032Z,14.93
2023-03-06T20:31:41.831Z,11.23
2023-03-06T20:34:10.809Z,10.35
2023-03-06T20:36:40.410Z,13.10
2023-03-06T20:39:09.136Z,12.60
2023-03-06T20:41:36.859Z,14.30
2023-03-06T20:44:05.346Z,13.10
2023-03-06T20:46:33.058Z,11.50
2023-03-06T20:49:04.053Z,11.37
2023-03-06T20:51:33.014Z,11.80
2023-03-06T20:54:00.941Z,11.70
2023-03-06T20:56:29.600Z,12.23
2023-03-06T20:58:57.319Z,11.27
2023-03-06T21:01:25.702Z,10.63
2023-03-06T21:03:53.399Z,10.63
2023-03-06T21:06:21.270Z,10.15
2023-03-06T21:08:49.145Z,11.40
2023-03-06T21:11:16.810Z,10.55
2023-03-06T21:13:44.281Z,10.13
2023-03-06T21:16:12.892Z,10.07
2023-03-06T21:18:40.607Z,10.85
2023-03-06T21:21:08.707Z,10.30
2023-03-06T21:23:36.122Z,9.82
2023-03-06T21:26:03.756Z,9.90
2023-03-06T21:28:31.566Z,10.32
2023-03-06T21:31:02.372Z,10.82
2023-03-06T21:33:30.048Z,9.35
2023-03-06T21:35:57.580Z,10.90
2023-03-06T21:38:25.007Z,12.67
2023-03-06T21:40:52.715Z,11.30
2023-03-06T21:43:20.153Z,7.57
2023-03-06T21:45:48.026Z,8.02
2023-03-06T21:48:15.809Z,9.27
2023-03-06T21:50:43.441Z,10.00
2023-03-06T21:53:10.916Z,11.35
2023-03-06T21:55:41.548Z,7.95
2023-03-06T21:58:08.989Z,8.23
2023-03-06T22:00:36.777Z,8.32
2023-03-06T22:03:04.848Z,12.77
2023-03-06T22:05:32.412Z,13.30
2023-03-06T22:08:00.037Z,8.45
2023-03-06T22:10:27.469Z,11.00
2023-03-06T22:12:54.997Z,10.43
2023-03-06T22:15:22.446Z,8.60
2023-03-06T22:17:49.961Z,9.43
2023-03-06T22:20:17.506Z,9.52
2023-03-06T22:22:45.063Z,8.30
2023-03-06T22:25:12.622Z,9.38
2023-03-06T22:27:40.066Z,9.40
2023-03-06T22:30:07.845Z,8.25
2023-03-06T22:32:35.362Z,9.95
2023-03-06T22:35:02.774Z,9.63
2023-03-06T22:37:30.161Z,9.80
2023-03-06T22:39:57.734Z,8.63
2023-03-06T22:42:25.128Z,8.70
2023-03-06T22:44:52.543Z,9.00
2023-03-06T22:47:20.006Z,9.27
2023-03-06T22:49:47.678Z,7.88
2023-03-06T22:52:15.372Z,10.83
2023-03-06T22:54:42.764Z,9.15
2023-03-06T22:57:10.197Z,9.82
2023-03-06T22:59:37.607Z,8.23
2023-03-06T23:02:05.124Z,8.77
2023-03-06T23:04:32.593Z,8.27
2023-03-06T23:06:59.986Z,9.30
2023-03-06T23:09:27.400Z,9.00
2023-03-06T23:11:55.016Z,8.98
2023-03-06T23:14:22.460Z,7.53
2023-03-06T23:16:49.873Z,9.53
2023-03-06T23:19:17.454Z,8.65
2023-03-06T23:21:45.275Z,8.50
2023-03-06T23:24:12.865Z,7.57
2023-03-06T23:26:40.729Z,8.05
2023-03-06T23:29:08.274Z,8.23
2023-03-06T23:31:35.743Z,9.40
2023-03-06T23:34:03.244Z,9.18
2023-03-06T23:36:31.224Z,7.47
2023-03-06T23:38:58.883Z,8.27
2023-03-06T23:41:27.233Z,7.50
2023-03-06T23:43:55.376Z,7.03
2023-03-06T23:46:23.009Z,7.63
2023-03-06T23:48:50.598Z,7.68
2023-03-06T23:51:21.537Z,6.90
2023-03-06T23:53:49.247Z,7.47
2023-03-06T23:56:16.656Z,7.15
2023-03-06T23:58:45.466Z,7.35
